Bradley International Airport
KBDL : now visible

Airfield :











YOU CAN JOIN US ON...

 
LOGIN :

Register | Disclaimer

   EN    FR    IT 

 









Legend :    VFR   Marginal VFR   IFR   Intensive IFR   Very Intensive IFR
Visi :
Ceiling :
>= 8 km
>= 3000ft
5 to 8 km
1000 to 3000 ft
1500m to 5 km
500 to 1000 ft
800 to 1500m
200 to 500 ft
< 800m
< 200 ft
Symbols :   Thunderstorms  Fog  Heavy snow  Heavy precipitations  Wind > 20 kt






- Airport Elevation : 173 ft
- IATA code : BDL


KBDL - Bradley International

CURRENT METAR :
  • 080651Z 00000KT 10SM CLR M08/M13 A3050 RMK AO2 SLP329 T10781133

EXPIRED METARs :
  • 080551Z 28005KT 10SM CLR M08/M13 A3049 RMK AO2 SLP327 4/008 T10831133 11017 21089 51003
  • 080451Z 00000KT 10SM CLR M08/M13 A3048 RMK AO2 SLP325 T10831133 400221089

TAF KBDL
Valid from the 08 at 06:00 until the 09 at 12:00 UTC


080540Z 0806/0912 00000KT P6SM SKC
FM090300 19005KT P6SM BKN100
FM090500 19006KT P6SM BKN060
FM090600 19006KT P6SM OVC025
FM090800 19004KT 6SM -DZ BR OVC015
FM091000 18004KT 4SM -DZ BR OVC015
FM091100 18003KT 3SM BR VCSH OVC010



MET'MAP, your aeronautical weather chart ! - Copyright ORBIFLY December 2007 - Disclaimer

ORBIFLY MET'MAP TEAM :

Programming & Development : Alexandra Zaïnal
Concept & original design : Baudouin d'Aumeries
Assistance for programming : Marc-Olivier Méhu
Technical & hardware support : Manuel Goepfert

Contact : metmap@orbifly.com




SOURCES & CREDITS :

   NOAA       Earth
Advisory